sensor_id;sensor_type;location;lat;lon;timestamp;pressure;altitude;pressure_sealevel;temperature;humidity
30110;BME280;14965;50.660;13.226;2022-10-26T00:02:18;95163.69;;;6.60;95.11
30110;BME280;14965;50.660;13.226;2022-10-26T00:04:45;95168.41;;;6.56;94.97
30110;BME280;14965;50.660;13.226;2022-10-26T00:07:11;95171.22;;;6.52;95.22
30110;BME280;14965;50.660;13.226;2022-10-26T00:09:37;95179.84;;;6.51;95.29
30110;BME280;14965;50.660;13.226;2022-10-26T00:12:04;95179.84;;;6.47;95.18
30110;BME280;14965;50.660;13.226;2022-10-26T00:14:30;95178.75;;;6.41;95.68
30110;BME280;14965;50.660;13.226;2022-10-26T00:16:56;95175.63;;;6.35;95.04
30110;BME280;14965;50.660;13.226;2022-10-26T00:19:22;95174.50;;;6.33;95.49
30110;BME280;14965;50.660;13.226;2022-10-26T00:21:49;95178.81;;;6.30;95.58
30110;BME280;14965;50.660;13.226;2022-10-26T00:24:15;95180.78;;;6.30;95.22
30110;BME280;14965;50.660;13.226;2022-10-26T00:26:41;95180.78;;;6.30;95.65
30110;BME280;14965;50.660;13.226;2022-10-26T00:29:07;95184.28;;;6.30;95.49
30110;BME280;14965;50.660;13.226;2022-10-26T00:31:33;95184.28;;;6.34;95.08
30110;BME280;14965;50.660;13.226;2022-10-26T00:33:59;95179.53;;;6.38;95.89
30110;BME280;14965;50.660;13.226;2022-10-26T00:36:25;95183.81;;;6.42;96.10
30110;BME280;14965;50.660;13.226;2022-10-26T00:38:56;95177.50;;;6.49;96.38
30110;BME280;14965;50.660;13.226;2022-10-26T00:41:25;95175.91;;;6.52;96.89
30110;BME280;14965;50.660;13.226;2022-10-26T00:43:52;95176.72;;;6.52;96.78
30110;BME280;14965;50.660;13.226;2022-10-26T00:46:21;95174.38;;;6.47;96.89
30110;BME280;14965;50.660;13.226;2022-10-26T00:48:52;95187.72;;;6.45;96.63
30110;BME280;14965;50.660;13.226;2022-10-26T00:51:26;95184.97;;;6.45;97.12
30110;BME280;14965;50.660;13.226;2022-10-26T00:53:55;95182.25;;;6.45;97.01
30110;BME280;14965;50.660;13.226;2022-10-26T00:56:22;95186.19;;;6.44;96.61
30110;BME280;14965;50.660;13.226;2022-10-26T00:58:49;95185.00;;;6.41;96.39
30110;BME280;14965;50.660;13.226;2022-10-26T01:01:15;95183.06;;;6.38;96.64
30110;BME280;14965;50.660;13.226;2022-10-26T01:03:42;95181.56;;;6.30;96.35
30110;BME280;14965;50.660;13.226;2022-10-26T01:06:08;95183.56;;;6.22;95.97
30110;BME280;14965;50.660;13.226;2022-10-26T01:08:36;95179.69;;;6.20;95.72
30110;BME280;14965;50.660;13.226;2022-10-26T01:11:05;95169.91;;;6.19;95.63
30110;BME280;14965;50.660;13.226;2022-10-26T01:13:33;95177.75;;;6.17;95.82
30110;BME280;14965;50.660;13.226;2022-10-26T01:16:19;95170.69;;;6.16;95.94
30110;BME280;14965;50.660;13.226;2022-10-26T01:19:00;95166.41;;;6.15;95.93
30110;BME280;14965;50.660;13.226;2022-10-26T01:21:48;95166.00;;;6.16;95.67
30110;BME280;14965;50.660;13.226;2022-10-26T01:24:45;95166.34;;;6.18;95.80
30110;BME280;14965;50.660;13.226;2022-10-26T01:27:27;95169.91;;;6.19;95.89
30110;BME280;14965;50.660;13.226;2022-10-26T01:30:17;95171.03;;;6.21;95.79
30110;BME280;14965;50.660;13.226;2022-10-26T01:32:54;95173.41;;;6.19;95.83
30110;BME280;14965;50.660;13.226;2022-10-26T01:35:28;95172.25;;;6.17;96.09
30110;BME280;14965;50.660;13.226;2022-10-26T01:38:08;95162.06;;;6.14;96.04
30110;BME280;14965;50.660;13.226;2022-10-26T01:40:42;95162.47;;;6.16;96.18
30110;BME280;14965;50.660;13.226;2022-10-26T01:43:13;95167.97;;;6.16;96.05
30110;BME280;14965;50.660;13.226;2022-10-26T01:45:45;95165.22;;;6.16;95.78
30110;BME280;14965;50.660;13.226;2022-10-26T01:48:17;95161.69;;;6.19;96.20
30110;BME280;14965;50.660;13.226;2022-10-26T01:50:51;95167.53;;;6.17;95.73
30110;BME280;14965;50.660;13.226;2022-10-26T01:53:18;95166.78;;;6.17;95.95
30110;BME280;14965;50.660;13.226;2022-10-26T01:55:48;95160.50;;;6.20;95.39
30110;BME280;14965;50.660;13.226;2022-10-26T01:58:51;95159.28;;;6.24;95.89
30110;BME280;14965;50.660;13.226;2022-10-26T02:02:02;95155.34;;;6.26;95.86
30110;BME280;14965;50.660;13.226;2022-10-26T02:04:43;95162.00;;;6.24;96.21
30110;BME280;14965;50.660;13.226;2022-10-26T02:07:21;95158.53;;;6.20;95.67
30110;BME280;14965;50.660;13.226;2022-10-26T02:10:00;95158.53;;;6.20;95.59
30110;BME280;14965;50.660;13.226;2022-10-26T02:12:38;95147.16;;;6.18;95.68
30110;BME280;14965;50.660;13.226;2022-10-26T02:15:14;95153.06;;;6.17;95.83
30110;BME280;14965;50.660;13.226;2022-10-26T02:17:50;95150.31;;;6.17;95.34
30110;BME280;14965;50.660;13.226;2022-10-26T02:20:24;95152.63;;;6.18;96.10
30110;BME280;14965;50.660;13.226;2022-10-26T02:22:54;95152.63;;;6.18;95.85
30110;BME280;14965;50.660;13.226;2022-10-26T02:25:26;95143.25;;;6.19;95.22
30110;BME280;14965;50.660;13.226;2022-10-26T02:27:58;95147.91;;;6.22;95.81
30110;BME280;14965;50.660;13.226;2022-10-26T02:30:27;95145.16;;;6.26;95.94
30110;BME280;14965;50.660;13.226;2022-10-26T02:32:56;95146.69;;;6.31;95.77
30110;BME280;14965;50.660;13.226;2022-10-26T02:35:29;95146.25;;;6.36;95.76
30110;BME280;14965;50.660;13.226;2022-10-26T02:37:59;95146.63;;;6.38;95.23
30110;BME280;14965;50.660;13.226;2022-10-26T02:40:28;95147.41;;;6.38;95.16
30110;BME280;14965;50.660;13.226;2022-10-26T02:42:59;95145.06;;;6.37;95.11
30110;BME280;14965;50.660;13.226;2022-10-26T02:45:32;95135.69;;;6.34;94.77
30110;BME280;14965;50.660;13.226;2022-10-26T02:48:00;95134.53;;;6.32;95.26
30110;BME280;14965;50.660;13.226;2022-10-26T02:50:36;95142.00;;;6.31;94.72
30110;BME280;14965;50.660;13.226;2022-10-26T02:53:13;95140.81;;;6.29;95.23
30110;BME280;14965;50.660;13.226;2022-10-26T02:55:48;95140.44;;;6.27;94.82
30110;BME280;14965;50.660;13.226;2022-10-26T02:58:21;95136.91;;;6.26;94.69
30110;BME280;14965;50.660;13.226;2022-10-26T03:00:50;95144.78;;;6.24;95.12
30110;BME280;14965;50.660;13.226;2022-10-26T03:03:19;95135.38;;;6.21;94.84
30110;BME280;14965;50.660;13.226;2022-10-26T03:05:45;95144.81;;;6.20;94.66
30110;BME280;14965;50.660;13.226;2022-10-26T03:08:11;95132.25;;;6.23;95.27
30110;BME280;14965;50.660;13.226;2022-10-26T03:10:42;95133.81;;;6.24;94.98
30110;BME280;14965;50.660;13.226;2022-10-26T03:13:08;95131.03;;;6.28;94.95
30110;BME280;14965;50.660;13.226;2022-10-26T03:15:35;95139.25;;;6.31;95.27
30110;BME280;14965;50.660;13.226;2022-10-26T03:18:01;95138.06;;;6.32;95.33
30110;BME280;14965;50.660;13.226;2022-10-26T03:20:28;95136.09;;;6.33;95.45
30110;BME280;14965;50.660;13.226;2022-10-26T03:22:54;95126.66;;;6.34;95.47
30110;BME280;14965;50.660;13.226;2022-10-26T03:25:20;95127.88;;;6.33;95.87
30110;BME280;14965;50.660;13.226;2022-10-26T03:27:46;95128.66;;;6.30;95.71
30110;BME280;14965;50.660;13.226;2022-10-26T03:30:12;95128.69;;;6.26;95.69
30110;BME280;14965;50.660;13.226;2022-10-26T03:32:38;95133.81;;;6.24;95.51
30110;BME280;14965;50.660;13.226;2022-10-26T03:35:05;95138.53;;;6.20;95.25
30110;BME280;14965;50.660;13.226;2022-10-26T03:37:32;95133.88;;;6.13;94.83
30110;BME280;14965;50.660;13.226;2022-10-26T03:39:58;95142.19;;;6.06;94.93
30110;BME280;14965;50.660;13.226;2022-10-26T03:42:24;95132.41;;;6.02;94.84
30110;BME280;14965;50.660;13.226;2022-10-26T03:44:50;95132.44;;;5.98;94.63
30110;BME280;14965;50.660;13.226;2022-10-26T03:47:16;95132.81;;;5.96;94.84
30110;BME280;14965;50.660;13.226;2022-10-26T03:49:41;95130.09;;;5.96;94.94
30110;BME280;14965;50.660;13.226;2022-10-26T03:52:07;95128.94;;;5.94;94.76
30110;BME280;14965;50.660;13.226;2022-10-26T03:54:35;95126.97;;;5.91;95.06
30110;BME280;14965;50.660;13.226;2022-10-26T03:57:00;95129.31;;;5.89;94.85
30110;BME280;14965;50.660;13.226;2022-10-26T03:59:26;95116.81;;;5.88;94.50
30110;BME280;14965;50.660;13.226;2022-10-26T04:01:52;95125.03;;;5.88;95.13
30110;BME280;14965;50.660;13.226;2022-10-26T04:04:18;95128.94;;;5.87;94.75
30110;BME280;14965;50.660;13.226;2022-10-26T04:06:44;95108.22;;;5.86;94.67
30110;BME280;14965;50.660;13.226;2022-10-26T04:09:10;95116.03;;;5.84;94.92
30110;BME280;14965;50.660;13.226;2022-10-26T04:11:37;95117.59;;;5.85;95.34
30110;BME280;14965;50.660;13.226;2022-10-26T04:14:03;95121.91;;;5.86;94.95
30110;BME280;14965;50.660;13.226;2022-10-26T04:16:29;95115.25;;;5.87;95.20
30110;BME280;14965;50.660;13.226;2022-10-26T04:18:55;95121.50;;;5.87;95.70
30110;BME280;14965;50.660;13.226;2022-10-26T04:21:21;95125.41;;;5.90;95.13
30110;BME280;14965;50.660;13.226;2022-10-26T04:23:47;95109.75;;;5.90;95.92
30110;BME280;14965;50.660;13.226;2022-10-26T04:26:13;95118.75;;;5.91;95.26
30110;BME280;14965;50.660;13.226;2022-10-26T04:28:40;95118.75;;;5.91;95.56
30110;BME280;14965;50.660;13.226;2022-10-26T04:31:06;95121.50;;;5.94;95.65
30110;BME280;14965;50.660;13.226;2022-10-26T04:33:32;95115.25;;;5.94;95.89
30110;BME280;14965;50.660;13.226;2022-10-26T04:35:58;95126.97;;;5.94;96.09
30110;BME280;14965;50.660;13.226;2022-10-26T04:38:25;95126.22;;;5.94;96.11
30110;BME280;14965;50.660;13.226;2022-10-26T04:40:51;95125.41;;;5.93;96.15
30110;BME280;14965;50.660;13.226;2022-10-26T04:43:17;95125.00;;;5.95;96.56
30110;BME280;14965;50.660;13.226;2022-10-26T04:45:45;95122.28;;;5.95;96.42
30110;BME280;14965;50.660;13.226;2022-10-26T04:48:12;95128.94;;;5.94;95.98
30110;BME280;14965;50.660;13.226;2022-10-26T04:50:39;95127.38;;;5.93;96.34
30110;BME280;14965;50.660;13.226;2022-10-26T04:53:06;95123.06;;;5.92;96.07
30110;BME280;14965;50.660;13.226;2022-10-26T04:55:33;95125.41;;;5.90;95.85
30110;BME280;14965;50.660;13.226;2022-10-26T04:57:59;95124.63;;;5.89;96.18
30110;BME280;14965;50.660;13.226;2022-10-26T05:00:26;95121.09;;;5.89;96.30
30110;BME280;14965;50.660;13.226;2022-10-26T05:02:58;95123.06;;;5.88;96.05
30110;BME280;14965;50.660;13.226;2022-10-26T05:05:24;95119.97;;;5.86;95.71
30110;BME280;14965;50.660;13.226;2022-10-26T05:07:53;95116.44;;;5.86;95.96
30110;BME280;14965;50.660;13.226;2022-10-26T05:10:19;95116.03;;;5.87;96.64
30110;BME280;14965;50.660;13.226;2022-10-26T05:12:50;95114.47;;;5.90;96.92
30110;BME280;14965;50.660;13.226;2022-10-26T05:15:16;95114.06;;;5.95;97.14
30110;BME280;14965;50.660;13.226;2022-10-26T05:17:41;95114.78;;;6.03;97.55
30110;BME280;14965;50.660;13.226;2022-10-26T05:20:10;95115.91;;;6.09;98.25
30110;BME280;14965;50.660;13.226;2022-10-26T05:22:36;95119.78;;;6.15;97.99
30110;BME280;14965;50.660;13.226;2022-10-26T05:25:02;95113.47;;;6.18;98.60
30110;BME280;14965;50.660;13.226;2022-10-26T05:27:28;95113.88;;;6.16;98.15
30110;BME280;14965;50.660;13.226;2022-10-26T05:29:54;95115.44;;;6.17;98.80
30110;BME280;14965;50.660;13.226;2022-10-26T05:32:20;95111.91;;;6.17;98.34
30110;BME280;14965;50.660;13.226;2022-10-26T05:34:46;95111.91;;;6.17;98.49
30110;BME280;14965;50.660;13.226;2022-10-26T05:37:14;95100.53;;;6.18;98.61
30110;BME280;14965;50.660;13.226;2022-10-26T05:39:39;95108.38;;;6.20;98.09
30110;BME280;14965;50.660;13.226;2022-10-26T05:42:05;95106.00;;;6.22;98.55
30110;BME280;14965;50.660;13.226;2022-10-26T05:44:31;95111.88;;;6.24;98.42
30110;BME280;14965;50.660;13.226;2022-10-26T05:46:57;95110.28;;;6.27;98.67
30110;BME280;14965;50.660;13.226;2022-10-26T05:49:23;95118.84;;;6.32;98.55
30110;BME280;14965;50.660;13.226;2022-10-26T05:51:49;95120.78;;;6.35;98.78
30110;BME280;14965;50.660;13.226;2022-10-26T05:54:16;95116.44;;;6.38;98.55
30110;BME280;14965;50.660;13.226;2022-10-26T08:19:18;95176.00;;;11.43;87.58
30110;BME280;14965;50.660;13.226;2022-10-26T08:26:42;95183.91;;;11.57;87.29
30110;BME280;14965;50.660;13.226;2022-10-26T08:29:43;95186.72;;;11.70;86.86
30110;BME280;14965;50.660;13.226;2022-10-26T08:32:55;95181.81;;;11.90;86.24
30110;BME280;14965;50.660;13.226;2022-10-26T08:36:26;95190.50;;;12.18;85.46
30110;BME280;14965;50.660;13.226;2022-10-26T08:39:24;95185.97;;;12.37;83.46
30110;BME280;14965;50.660;13.226;2022-10-26T08:42:20;95192.63;;;12.52;82.81
30110;BME280;14965;50.660;13.226;2022-10-26T08:52:13;95192.56;;;13.03;79.58
30110;BME280;14965;50.660;13.226;2022-10-26T08:54:48;95194.56;;;13.03;80.03
30110;BME280;14965;50.660;13.226;2022-10-26T08:57:21;95197.22;;;13.06;79.86
30110;BME280;14965;50.660;13.226;2022-10-26T09:01:13;95185.91;;;13.26;79.52
30110;BME280;14965;50.660;13.226;2022-10-26T09:11:07;95198.41;;;13.65;77.11
30110;BME280;14965;50.660;13.226;2022-10-26T09:13:49;95194.69;;;13.81;76.53
30110;BME280;14965;50.660;13.226;2022-10-26T09:16:27;95191.84;;;13.94;76.31
30110;BME280;14965;50.660;13.226;2022-10-26T09:22:21;95193.00;;;14.06;74.60
30110;BME280;14965;50.660;13.226;2022-10-26T09:33:12;95192.59;;;14.16;74.91
30110;BME280;14965;50.660;13.226;2022-10-26T10:29:50;95202.31;;;14.43;73.34
30110;BME280;14965;50.660;13.226;2022-10-26T18:44:27;95491.97;;;11.11;100.00
30110;BME280;14965;50.660;13.226;2022-10-26T18:56:12;95497.09;;;10.92;99.88
